Accueil
METAR-TAF:

METAR-TAF

Aéroports :

Aéroport international de Coni

Coni, Italie

latitude: 44-32-47N, longitude: 007-37-20E, altitude: 386 m

Observation

Le bulletin a été fait il y a 4 heures et 11 minutes, à 18:50 UTC
Vent 4 kt de nord-ouest
Température 24°C
Humidité 69%
Pression 1016 hPa
Visibilité 10 km ou plus
Nuages épars à une hauteur de 4000 ft

METAR: LIMZ 171850Z 31004KT 9999 SCT040 24/18 Q1016

Heure: 01:01 (23:01 UTC)

Prévision

Le bulletin a été fait il y a 6 heures et 1 minutes, à 17:00 UTC
Prévision valable du 17 à 18 UTC au 18 à 18 UTC
Vent 5 kt de direction variable
Visibilité 10 km ou plus
Nuages épars à une hauteur de 4000 ft
Probabilité 40% :
Temporairement
du 17 à 18 UTC au 17 à 20 UTC
orage, pluie

TAF: LIMZ 171700Z 1718/1818 VRB05KT 9999 SCT040 PROB40 TEMPO 1718/1720 TSRA

Observations et prévisions météorologiques de plus de 4000 aéroports (messages METAR et TAF).

Les stations disponibles sont représentées par des disques jaunes et rouges sur la carte.

Passer la souris dessus pour voir le nom de la station.

Cliquer dessus pour voir les observations et prévisions météorologiques.

Pour changer de carte: cliquez sur les boutons verts avec une croix noire pour zoomer, sur le bouton vert avec un tiret pour effectuer un zoom arrière, ou sur les flèches vertes pour les cartes adjacentes.


METAR-TAF: